ADDS METAR Data INFO
IDs: Format: Raw Decoded Include TAF

Data at: 0806 UTC 23 Jul 2018

KILM 230753Z AUTO 15006KT 10SM -RA FEW090 SCT110 23/21 A2978 RMK AO2 RAB34 SLP086 P0001 T02280206
KILM 230653Z AUTO 23007KT 10SM FEW110 23/21 A2981 RMK AO2 RAE42 SLP095 P0002 T02280206
KILM 230553Z AUTO 13005KT 10SM -RA FEW100 BKN120 22/20 A2982 RMK AO2 PK WND 16032/0500 LTG DSNT N TSB0452E14 SLP098 P0035 60057 T02170200 10278 20217 50002
KILM 230543Z AUTO 13005KT 9SM RA BKN100 BKN120 22/19 A2982 RMK AO2 PK WND 16032/0500 LTG DSNT N AND S TSB0452E14 P0035 T02170194
KILM 230520Z AUTO 15012G20KT 5SM VCTS RA BKN045 OVC100 22/18 A2984 RMK AO2 PK WND 16032/0500 LTG DSNT ALQDS TSB0452E14 P0030 T02170183
KILM 230512Z AUTO 15015G26KT 2SM +TSRA BKN042 OVC090 22/18 A2985 RMK AO2 PK WND 16032/0500 LTG DSNT ALQDS TSB0452 P0028 T02170178
KILM 230506Z AUTO 16017G40KT 1 1/4SM R35/5000VP6000FT +TSRA BKN040 BKN075 OVC090 22/18 A2986 RMK AO2 PK WND 16032/0500 LTG DSNT SE AND S TSB0452 P0021 T02170183
KILM 230455Z AUTO 17027G41KT 1 3/4SM +TSRA FEW036 BKN050 OVC110 23/20 A2984 RMK AO2 PK WND 18040/0455 LTG DSNT ALQDS TSB52 P0005 T02280200
KILM 230451Z AUTO 15022G41KT 2 1/2SM VCTS +RA SCT038 BKN050 OVC110 24/21 A2985 RMK AO2 PK WND 16041/0451 LTG DSNT ALQDS RAE0359B26 TSE05B20E45 SLP106 P0005 T02390211 403170233
KILM 230450Z AUTO 15018G32KT 2 1/2SM VCTS +RA BKN038 BKN050 OVC090 24/21 A2985 RMK AO2 PK WND 17032/0447 LTG DSNT ALQDS RAE0359B26 TSE05B20E45 P0004
KILM 230426Z AUTO 18006KT 9SM -TSRA SCT037 BKN050 26/24 A2982 RMK AO2 LTG DSNT ALQDS RAE0359B26 TSE05B20 P0000 T02560239
KILM 230410Z AUTO 15006KT 10SM FEW010 SCT038 BKN050 26/23 A2982 RMK AO2 LTG DSNT N AND NE AND S RAE0359 TSE05 P0000 T02610228
KILM 230401Z AUTO 15008KT 10SM TS SCT010 BKN038 OVC050 26/24 A2982 RMK AO2 LTG DSNT N AND NE AND S RAE0359 P0000 T02610239
KILM 230353Z AUTO 16005KT 6SM -TSRA BR BKN010 BKN019 BKN055 26/24 A2982 RMK AO2 LTG DSNT NW-E RAE05B27 TSE12B45 SLP097 P0004 T02560244
KILM 230348Z AUTO 17007KT 6SM -TSRA BR BKN010 BKN017 OVC095 26/24 A2982 RMK AO2 LTG DSNT NW-E RAE05B27 TSE12B45 P0002
KILM 230341Z AUTO 20004KT 10SM VCTS -RA SCT012 BKN019 BKN036 26/24 A2982 RMK AO2 LTG DSNT NW-E RAE05B27 TSE12 P0002 T02560239
KILM 230316Z AUTO 20004KT 10SM VCTS FEW014 SCT022 BKN034 24/23 A2981 RMK AO2 LTG DSNT N-E RAE05 TSE12 P0000 T02440228
KILM 230253Z AUTO 25009KT 10SM -TSRA SCT016 BKN026 OVC043 23/21 A2980 RMK AO2 LTG DSNT N AND NE RAB29 TSB23 SLP092 P0013 60013 T02330206 51012
KILM 230237Z AUTO 19012G20KT 3SM +TSRA SCT013 BKN023 BKN045 26/23 A2980 RMK AO2 LTG DSNT NE AND S RAB29 TSB23 P0003 T02560228
KILM 230229Z AUTO 17008KT 9SM -TSRA SCT017 BKN043 BKN065 27/25 A2980 RMK AO2 LTG DSNT S RAB29 TSB23 P0000 T02720250
KILM 230221Z AUTO 16006KT 10SM VCTS FEW014 SCT022 BKN037 27/25 A2980 RMK AO2 T02720250
KILM 230153Z 16007KT 10SM FEW042 27/24 A2980 RMK AO2 SLP091 T02720244
KILM 230053Z 16006KT 10SM FEW038 27/24 A2979 RMK AO2 SLP086 T02720244
KILM 230000Z 18007KT 10SM SCT018 27/24 A2977 RMK AO2 T02670244
KILM 222353Z 18006KT 10SM BKN019 27/24 A2977 RMK AO2 SLP079 P0001 60006 T02670244 10317 20267 50003
KILM 222326Z 16005KT 10SM BKN020 BKN027 27/24 A2977 RMK AO2 LTG DSNT N P0001 T02720244
KILM 222316Z 17007KT 10SM SCT020 27/24 A2977 RMK AO2 LTG DSNT N T02720244
KILM 222306Z 17008G15KT 10SM BKN020 27/25 A2977 RMK AO2 T02720250
KILM 222253Z 16008KT 10SM SCT018 SCT023 BKN050 27/25 A2977 RMK AO2 RAB26E41 SLP080 P0005 T02720250
KILM 222251Z 17005KT 10SM BKN020 BKN050 27/25 A2977 RMK AO2 RAB26E41 P0005
KILM 222226Z 17013KT 5SM +RA SCT021 SCT050 29/25 A2976 RMK AO2 RAB26 P0000 T02890250
KILM 222153Z 19011KT 10SM SCT019 BKN024 BKN035 30/25 A2976 RMK AO2 SLP077 T03000250
KILM 222053Z 18014G20KT 10SM BKN023 31/25 A2976 RMK AO2 SLP077 T03060250 51002
KILM 222051Z 17010G17KT 10SM BKN023 31/25 A2976 RMK AO2
KILM 221953Z 17014G20KT 10SM FEW023 SCT030 BKN060 30/24 A2976 RMK AO2 SLP077 T03000244
KILM 221853Z 16012G18KT 10SM SCT026 BKN033 BKN045 31/25 A2975 RMK AO2 SLP075 T03060250
KILM 221836Z 15007G17KT 10SM BKN026 BKN033 BKN049 30/24 A2976 RMK AO2 T03000244
KILM 221753Z 16014G19KT 10SM SCT029 31/24 A2976 RMK AO2 SLP079 T03060239 10317 20267 58008
KILM 221653Z 18014G17KT 10SM SCT027 31/24 A2978 RMK AO2 SLP085 T03110239
KILM 221553Z 18012KT 10SM SCT027 SCT035 31/23 A2978 RMK AO2 SLP085 T03060233
KILM 221453Z 18009KT 10SM FEW026 30/23 A2979 RMK AO2 SLP087 T03000228 51003
KILM 221353Z 21008KT 10SM FEW020 SCT027 28/23 A2979 RMK AO2 SLP086 T02830228
KILM 221326Z 23008KT 10SM BKN021 BKN025 28/23 A2979 RMK AO2 T02830233
KILM 221253Z 19007KT 10SM FEW018 28/23 A2979 RMK AO2 SLP087 T02780233
KILM 221153Z 18005KT 10SM CLR 27/24 A2978 RMK AO2 SLP084 T02670239 10267 20244 53005
KILM 221053Z 00000KT 10SM CLR 24/23 A2977 RMK AO2 SLP081 T02440228
KILM 220953Z 15006KT 10SM SCT037 25/23 A2976 RMK AO2 LTG DSNT N AND NW SLP076 T02500233
KILM 220853Z AUTO 16004KT 10SM CLR 24/23 A2977 RMK AO2 SLP079 T02440233 55005
KILM 220753Z AUTO 17006KT 10SM CLR 24/23 A2976 RMK AO2 SLP076 T02440233
KILM 220653Z AUTO 17005KT 10SM CLR 24/23 A2978 RMK AO2 SLP083 T02440228
KILM 220553Z AUTO 17005KT 10SM CLR 25/23 A2978 RMK AO2 SLP084 T02500228 10272 20250 58005
KILM 220453Z AUTO 21006KT 10SM CLR 26/23 A2980 RMK AO2 SLP089 T02560233 403170222
KILM 220353Z AUTO 19010KT 10SM CLR 26/23 A2979 RMK AO2 SLP089 LAST T02560233
KILM 220253Z 19010KT 10SM CLR 26/23 A2979 RMK AO2 SLP089 T02560233 50007
KILM 220153Z 18008KT 10SM CLR 26/23 A2980 RMK AO2 SLP091 T02560233
KILM 220053Z 20012KT 10SM CLR 26/23 A2979 RMK AO2 SLP087 T02610228
KILM 220039Z 18013KT 10SM FEW003 26/23 A2979 RMK AO2 T02610228
KILM 212353Z 20007KT 10SM CLR 27/23 A2977 RMK AO2 SLP081 T02720228 10317 20272 52005
KILM 212253Z 21009KT 10SM FEW038 28/23 A2977 RMK AO2 SLP079 T02830233
KILM 212153Z 25008KT 10SM CLR 31/21 A2976 RMK AO2 SLP077 T03060206
KILM 212053Z 27007KT 10SM SCT045 30/21 A2975 RMK AO2 SLP075 T03000206 56008